Time;durP1;ratioP1;P1;durP2;ratioP2;P2;SDS_P1;SDS_P2;PMS_P1;PMS_P2;Temp;Humidity;BMP_temperature;BMP_pressure;BME280_temperature;BME280_humidity;BME280_pressure;Samples;Min_cycle;Max_cycle;Signal;HPM_P1;HPM_P2
2022/03/29 00:00:52;;;;;;;1.63;1.27;;;14.60;99.90;;;;;;5028832;28;20189;-83
2022/03/29 00:03:17;;;;;;;4.23;1.37;;;14.30;99.90;;;;;;5027391;28;20643;-83
2022/03/29 00:05:43;;;;;;;3.43;0.93;;;14.30;99.90;;;;;;5028638;28;20230;-83
2022/03/29 00:08:08;;;;;;;3.87;1.67;;;14.30;99.90;;;;;;5027258;28;20208;-82
2022/03/29 00:10:34;;;;;;;5.87;1.87;;;14.30;99.90;;;;;;5028055;28;20194;-83
2022/03/29 00:12:59;;;;;;;3.13;1.60;;;14.30;99.90;;;;;;5026203;28;20543;-83
2022/03/29 00:15:28;;;;;;;1.27;1.20;;;14.40;99.90;;;;;;5028367;28;20403;-83
2022/03/29 00:17:54;;;;;;;1.43;1.30;;;14.40;99.90;;;;;;5027434;28;20227;-83
2022/03/29 00:20:21;;;;;;;2.50;1.47;;;14.40;99.90;;;;;;5029463;28;20199;-82
2022/03/29 00:22:47;;;;;;;2.67;2.47;;;14.40;99.90;;;;;;5030598;28;20193;-83
2022/03/29 00:25:13;;;;;;;2.43;1.73;;;14.40;99.90;;;;;;5028788;28;20763;-83
2022/03/29 00:27:39;;;;;;;2.53;2.27;;;14.40;99.90;;;;;;5029716;28;20182;-83
2022/03/29 00:30:07;;;;;;;1.53;0.97;;;14.30;99.90;;;;;;5027423;28;20197;-83
2022/03/29 00:32:33;;;;;;;7.27;2.30;;;14.30;99.90;;;;;;5027848;28;20194;-83
2022/03/29 00:34:59;;;;;;;2.60;1.53;;;14.30;99.90;;;;;;5028754;28;20581;-83
2022/03/29 00:37:24;;;;;;;2.23;2.03;;;14.30;99.90;;;;;;5028959;28;20252;-83
2022/03/29 00:39:50;;;;;;;0.50;0.50;;;14.30;99.90;;;;;;5028386;28;20185;-83
2022/03/29 00:42:15;;;;;;;2.63;2.43;;;14.30;99.90;;;;;;5028151;28;20190;-83
2022/03/29 00:44:42;;;;;;;1.33;1.23;;;14.30;99.90;;;;;;5027418;28;20281;-83
2022/03/29 00:47:07;;;;;;;3.27;1.83;;;14.30;99.90;;;;;;5027536;28;20215;-83
2022/03/29 00:49:33;;;;;;;1.97;0.70;;;14.30;99.90;;;;;;5024845;28;20928;-82
2022/03/29 00:52:01;;;;;;;5.43;3.20;;;14.20;99.90;;;;;;5027015;28;20195;-82
2022/03/29 00:54:30;;;;;;;1.63;1.50;;;14.30;99.90;;;;;;5027060;28;20364;-82
2022/03/29 00:57:00;;;;;;;2.87;2.27;;;14.10;99.90;;;;;;5026139;28;20263;-83
2022/03/29 00:59:27;;;;;;;1.70;1.50;;;14.00;99.90;;;;;;5024671;28;20171;-82
2022/03/29 01:01:53;;;;;;;2.83;2.60;;;14.00;99.90;;;;;;5027350;28;20782;-82
2022/03/29 01:04:22;;;;;;;2.73;1.37;;;13.90;99.90;;;;;;5027489;28;20231;-82
2022/03/29 01:06:48;;;;;;;3.83;2.33;;;13.80;99.90;;;;;;5027023;28;20204;-83
2022/03/29 01:09:14;;;;;;;3.13;1.93;;;13.60;99.90;;;;;;5026524;28;20289;-83
2022/03/29 01:11:40;;;;;;;4.53;1.60;;;13.50;99.90;;;;;;5027871;28;20185;-83
2022/03/29 01:14:06;;;;;;;1.40;1.07;;;13.40;99.90;;;;;;5026273;28;20189;-82
2022/03/29 01:19:17;;;;;;;4.03;1.83;;;13.30;99.90;;;;;;5028475;28;20684;-83
2022/03/29 01:21:56;;;;;;;2.77;1.03;;;13.20;99.90;;;;;;5024828;28;20188;-82
2022/03/29 01:24:22;;;;;;;1.87;0.87;;;13.10;99.90;;;;;;5025807;28;20682;-83
2022/03/29 01:26:49;;;;;;;2.53;1.17;;;13.10;99.90;;;;;;5028305;28;20236;-83
2022/03/29 01:29:15;;;;;;;1.47;0.90;;;13.10;99.90;;;;;;5028182;28;20208;-82
2022/03/29 01:31:41;;;;;;;2.97;1.87;;;13.20;99.90;;;;;;5027776;28;20272;-82
2022/03/29 01:34:07;;;;;;;6.17;2.57;;;13.10;99.90;;;;;;5027050;28;20195;-83
2022/03/29 01:36:33;;;;;;;2.07;1.57;;;13.20;99.90;;;;;;5025228;28;20193;-83
2022/03/29 01:38:59;;;;;;;3.97;1.43;;;13.20;99.90;;;;;;5026387;28;20185;-82
2022/03/29 01:41:27;;;;;;;2.97;2.33;;;13.20;99.90;;;;;;5024216;28;20185;-83
2022/03/29 01:43:52;;;;;;;1.80;1.27;;;13.20;99.90;;;;;;5026200;28;20279;-83
2022/03/29 01:46:18;;;;;;;2.30;0.97;;;13.10;99.90;;;;;;5024697;28;20257;-82
2022/03/29 01:48:44;;;;;;;1.37;1.27;;;13.20;99.90;;;;;;5027259;28;21228;-82
2022/03/29 01:51:12;;;;;;;2.33;1.00;;;13.20;99.90;;;;;;5028083;28;20224;-82
2022/03/29 01:53:39;;;;;;;2.30;1.30;;;13.20;99.90;;;;;;5026752;28;20193;-83
2022/03/29 01:56:05;;;;;;;3.30;2.00;;;13.20;99.90;;;;;;5023774;28;20208;-83
2022/03/29 01:58:30;;;;;;;1.03;1.03;;;13.20;99.90;;;;;;5024718;28;20225;-83
2022/03/29 02:00:56;;;;;;;2.40;2.20;;;13.20;99.90;;;;;;5026744;28;20176;-83
2022/03/29 02:03:22;;;;;;;3.27;2.27;;;13.20;99.90;;;;;;5027899;28;20544;-82
2022/03/29 02:05:48;;;;;;;2.83;1.30;;;13.10;99.90;;;;;;5023237;28;20648;-83
2022/03/29 02:08:14;;;;;;;1.43;1.03;;;13.10;99.90;;;;;;5026406;28;20182;-83
2022/03/29 02:10:40;;;;;;;3.60;1.47;;;12.90;99.90;;;;;;5026219;28;20189;-83
2022/03/29 02:13:09;;;;;;;1.13;0.97;;;12.90;99.90;;;;;;5025868;28;20189;-83
2022/03/29 02:15:38;;;;;;;2.30;1.27;;;13.00;99.90;;;;;;5024391;28;20211;-83
2022/03/29 02:18:04;;;;;;;1.83;1.53;;;12.90;99.90;;;;;;5025075;28;20220;-83
2022/03/29 02:20:30;;;;;;;3.00;2.43;;;12.90;99.90;;;;;;5024941;28;20187;-82
2022/03/29 02:23:00;;;;;;;1.07;1.00;;;12.90;99.90;;;;;;5026065;28;20254;-83
2022/03/29 02:25:25;;;;;;;2.40;1.43;;;12.80;99.90;;;;;;5026418;28;20207;-82
2022/03/29 02:27:51;;;;;;;1.73;1.63;;;12.80;99.90;;;;;;5025452;28;20318;-82
2022/03/29 02:30:17;;;;;;;2.67;2.50;;;12.80;99.90;;;;;;5024883;28;20211;-83
2022/03/29 02:32:43;;;;;;;2.37;1.80;;;12.80;99.90;;;;;;5025290;28;20878;-83
2022/03/29 02:35:09;;;;;;;0.83;0.77;;;12.80;99.90;;;;;;5024309;28;20215;-83
2022/03/29 02:37:35;;;;;;;2.97;2.70;;;12.80;99.90;;;;;;5025155;28;20275;-83
2022/03/29 02:40:03;;;;;;;1.70;1.60;;;12.80;99.90;;;;;;5024075;28;20306;-83
2022/03/29 02:42:29;;;;;;;2.90;1.50;;;12.80;99.90;;;;;;5025939;28;20183;-83
2022/03/29 02:44:54;;;;;;;1.83;1.13;;;12.80;99.90;;;;;;5025565;28;20917;-83
2022/03/29 02:47:20;;;;;;;1.77;1.67;;;12.80;99.90;;;;;;5027315;28;20180;-82
2022/03/29 02:49:46;;;;;;;4.13;2.53;;;12.70;99.90;;;;;;5024582;28;20179;-83
2022/03/29 02:52:12;;;;;;;4.73;1.60;;;12.50;99.90;;;;;;5025647;28;20195;-83
2022/03/29 02:54:38;;;;;;;3.67;1.73;;;12.40;99.90;;;;;;5023927;28;21730;-83
2022/03/29 02:57:04;;;;;;;1.93;1.83;;;12.20;99.90;;;;;;5025386;28;20210;-83
2022/03/29 02:59:30;;;;;;;2.13;1.23;;;12.00;99.90;;;;;;5023749;28;20179;-82
2022/03/29 03:01:56;;;;;;;2.67;2.47;;;12.00;99.90;;;;;;5026351;28;20182;-82
2022/03/29 03:04:22;;;;;;;0.53;0.53;;;12.00;99.90;;;;;;5026028;28;20202;-83
2022/03/29 03:06:48;;;;;;;2.90;2.03;;;12.10;99.90;;;;;;5026156;28;20569;-82
2022/03/29 03:09:13;;;;;;;2.00;1.63;;;12.00;99.90;;;;;;5026200;28;20191;-83
2022/03/29 03:11:39;;;;;;;0.97;0.87;;;12.00;99.90;;;;;;5025971;28;20179;-82
2022/03/29 03:14:05;;;;;;;1.37;1.27;;;12.10;99.90;;;;;;5022800;28;20176;-82
2022/03/29 03:16:30;;;;;;;1.47;1.37;;;12.10;99.90;;;;;;5025640;28;20187;-83
2022/03/29 03:18:56;;;;;;;2.07;1.20;;;12.10;99.90;;;;;;5025968;28;20654;-83
2022/03/29 03:21:21;;;;;;;1.97;1.33;;;12.10;99.90;;;;;;5027117;28;20204;-83
2022/03/29 03:23:47;;;;;;;2.93;1.03;;;12.10;99.90;;;;;;5025151;28;20201;-82
2022/03/29 03:26:13;;;;;;;5.10;1.30;;;12.20;99.90;;;;;;5026696;28;20213;-82
2022/03/29 03:28:38;;;;;;;2.20;1.13;;;12.10;99.90;;;;;;5025048;28;20187;-83
2022/03/29 03:31:04;;;;;;;1.97;1.10;;;12.10;99.90;;;;;;5025690;28;20313;-82
2022/03/29 03:33:30;;;;;;;0.70;0.70;;;12.10;99.90;;;;;;5024403;28;20281;-83
2022/03/29 03:35:55;;;;;;;1.47;1.37;;;12.10;99.90;;;;;;5024623;28;20598;-82
2022/03/29 03:38:22;;;;;;;4.27;1.63;;;12.10;99.90;;;;;;5024612;28;20208;-83
2022/03/29 03:40:47;;;;;;;4.53;1.30;;;12.20;99.90;;;;;;5024783;28;20642;-83
2022/03/29 03:43:13;;;;;;;1.43;0.90;;;12.20;99.90;;;;;;5025935;28;20256;-82
2022/03/29 03:45:39;;;;;;;2.93;1.77;;;12.30;99.90;;;;;;5025426;28;20249;-82
2022/03/29 03:48:05;;;;;;;1.70;1.40;;;12.30;99.90;;;;;;5025765;28;20206;-83
2022/03/29 03:50:31;;;;;;;1.77;1.67;;;12.30;99.90;;;;;;5026292;28;20193;-83
2022/03/29 03:52:57;;;;;;;1.17;0.97;;;12.30;99.90;;;;;;5025413;28;20188;-82
2022/03/29 03:55:22;;;;;;;1.60;1.53;;;12.30;99.90;;;;;;5021887;28;20222;-83
2022/03/29 03:57:49;;;;;;;2.13;1.93;;;12.30;99.90;;;;;;5025116;28;20208;-82
2022/03/29 04:00:15;;;;;;;5.10;2.70;;;12.40;99.90;;;;;;5024198;28;20655;-82
2022/03/29 04:02:41;;;;;;;1.87;1.10;;;12.40;99.90;;;;;;5023689;28;20177;-83
2022/03/29 04:05:10;;;;;;;1.43;1.33;;;12.40;99.90;;;;;;5027079;28;20209;-82
2022/03/29 04:07:36;;;;;;;4.07;1.93;;;12.40;99.90;;;;;;5024732;28;20179;-83
2022/03/29 04:10:01;;;;;;;1.73;0.83;;;12.30;99.90;;;;;;5023876;28;20751;-83
2022/03/29 04:12:27;;;;;;;1.23;0.80;;;12.30;99.90;;;;;;5027644;28;20184;-82
2022/03/29 04:14:54;;;;;;;1.17;1.10;;;12.30;99.90;;;;;;5028316;28;20206;-82
2022/03/29 04:17:19;;;;;;;1.70;1.27;;;12.30;99.90;;;;;;5028006;28;20214;-83
2022/03/29 04:19:45;;;;;;;2.50;2.00;;;12.20;99.90;;;;;;5027547;28;20180;-82
2022/03/29 04:22:10;;;;;;;2.63;1.03;;;12.10;99.90;;;;;;5028537;28;20660;-83
2022/03/29 04:24:36;;;;;;;1.43;1.33;;;12.00;99.90;;;;;;5028629;28;20198;-83
2022/03/29 04:27:02;;;;;;;1.37;1.20;;;12.10;99.90;;;;;;5027419;28;20687;-83
2022/03/29 04:29:28;;;;;;;4.37;1.83;;;12.00;99.90;;;;;;5030069;28;20814;-83
2022/03/29 04:31:53;;;;;;;2.30;2.10;;;11.90;99.90;;;;;;5028605;28;20283;-82
2022/03/29 04:34:19;;;;;;;2.57;1.43;;;11.80;99.90;;;;;;5029320;28;20651;-83
2022/03/29 04:36:45;;;;;;;2.73;1.27;;;11.80;99.90;;;;;;5025778;28;20179;-82
2022/03/29 04:39:10;;;;;;;1.30;1.17;;;11.90;99.90;;;;;;5028687;28;20188;-83
2022/03/29 04:41:36;;;;;;;2.50;1.63;;;11.90;99.90;;;;;;5028057;28;21069;-82
2022/03/29 04:44:01;;;;;;;2.73;1.80;;;11.80;99.90;;;;;;5029367;28;20585;-83
2022/03/29 04:46:27;;;;;;;3.23;0.67;;;11.80;99.90;;;;;;5029609;28;20189;-83
2022/03/29 04:48:53;;;;;;;4.80;1.97;;;11.80;99.90;;;;;;5028939;28;20228;-82
2022/03/29 04:51:19;;;;;;;1.53;1.43;;;11.70;99.90;;;;;;5028252;28;20207;-84
2022/03/29 04:53:45;;;;;;;2.57;1.27;;;11.70;99.90;;;;;;5030504;28;20190;-83
2022/03/29 04:56:10;;;;;;;2.97;2.07;;;11.70;99.90;;;;;;5027160;28;20215;-83
2022/03/29 04:58:36;;;;;;;1.27;1.17;;;11.70;99.90;;;;;;5028006;28;20203;-83
2022/03/29 05:01:01;;;;;;;1.57;1.37;;;11.70;99.90;;;;;;5027025;28;20412;-83
2022/03/29 05:03:27;;;;;;;1.23;1.13;;;11.60;99.90;;;;;;5027154;28;20189;-83
2022/03/29 05:05:53;;;;;;;5.87;1.50;;;11.40;99.90;;;;;;5026665;28;20217;-82
2022/03/29 05:08:18;;;;;;;4.03;1.67;;;11.20;99.90;;;;;;5024975;28;20781;-83
2022/03/29 05:10:44;;;;;;;1.30;1.20;;;11.20;99.90;;;;;;5026011;28;20175;-83
2022/03/29 05:13:10;;;;;;;2.07;1.87;;;11.40;99.90;;;;;;5025302;28;20194;-83
2022/03/29 05:15:36;;;;;;;1.33;0.77;;;11.30;99.90;;;;;;5024395;28;20241;-82
2022/03/29 05:18:02;;;;;;;1.17;1.13;;;11.30;99.90;;;;;;5024932;28;20221;-80
2022/03/29 05:20:27;;;;;;;3.17;2.17;;;11.30;99.90;;;;;;5024530;28;20186;-81
2022/03/29 05:22:55;;;;;;;0.90;0.90;;;11.40;99.90;;;;;;5024098;28;20971;-81
2022/03/29 05:25:22;;;;;;;3.77;2.40;;;11.50;99.90;;;;;;5025704;28;21002;-81
2022/03/29 05:27:48;;;;;;;3.47;1.40;;;11.50;99.90;;;;;;5022992;28;20652;-81
2022/03/29 05:30:15;;;;;;;1.63;1.53;;;11.50;99.90;;;;;;5023474;28;20259;-81
2022/03/29 05:32:41;;;;;;;2.27;1.53;;;11.60;99.90;;;;;;5021481;28;20261;-81
2022/03/29 05:35:08;;;;;;;1.73;1.63;;;11.70;99.90;;;;;;5026685;28;20221;-81
2022/03/29 05:37:34;;;;;;;5.53;2.07;;;11.70;99.90;;;;;;5029769;28;20214;-81
2022/03/29 05:40:00;;;;;;;2.83;1.13;;;11.80;99.90;;;;;;5031464;28;20186;-82
2022/03/29 05:42:26;;;;;;;3.13;1.90;;;11.70;99.90;;;;;;5036439;28;20404;-82
2022/03/29 05:44:51;;;;;;;0.77;0.70;;;11.80;99.90;;;;;;5026774;28;20202;-82
2022/03/29 05:50:01;;;;;;;1.23;1.23;;;11.90;99.90;;;;;;5030215;28;20691;-82
2022/03/29 05:52:28;;;;;;;1.47;1.37;;;11.90;99.90;;;;;;5028277;28;20214;-82
2022/03/29 05:54:54;;;;;;;0.70;0.70;;;12.00;99.90;;;;;;5024946;28;20206;-82
2022/03/29 05:57:20;;;;;;;2.20;1.17;;;12.00;99.90;;;;;;5027808;28;20226;-82
2022/03/29 05:59:46;;;;;;;2.97;1.30;;;12.10;99.90;;;;;;5024860;28;20213;-82
2022/03/29 06:02:12;;;;;;;1.70;1.20;;;12.10;99.90;;;;;;5022988;28;20193;-83
2022/03/29 06:04:39;;;;;;;5.23;1.70;;;12.10;99.90;;;;;;5022252;28;20260;-83
2022/03/29 06:07:05;;;;;;;1.50;1.37;;;12.10;99.90;;;;;;5023674;28;20256;-82
2022/03/29 06:09:32;;;;;;;1.80;1.23;;;12.10;99.90;;;;;;5025047;28;20185;-83
2022/03/29 06:11:57;;;;;;;1.70;1.60;;;12.20;99.90;;;;;;5021318;28;20293;-82
2022/03/29 06:14:23;;;;;;;1.37;1.27;;;12.20;99.90;;;;;;5024670;28;20713;-83
2022/03/29 06:16:49;;;;;;;3.97;2.63;;;12.20;99.90;;;;;;5023544;28;20512;-82
2022/03/29 06:19:15;;;;;;;2.00;0.93;;;12.30;99.90;;;;;;5022661;28;20874;-83
2022/03/29 06:21:41;;;;;;;2.87;1.77;;;12.40;99.90;;;;;;5020960;28;20799;-83
2022/03/29 06:24:08;;;;;;;1.80;1.27;;;12.40;99.90;;;;;;5018138;28;20178;-81
2022/03/29 06:26:39;;;;;;;1.73;1.27;;;12.20;99.90;;;;;;5008780;28;20183;-81
2022/03/29 06:29:09;;;;;;;3.10;2.90;;;11.90;99.90;;;;;;5019757;28;20209;-81
2022/03/29 06:31:36;;;;;;;5.43;2.23;;;11.60;99.90;;;;;;5020776;28;20176;-81
2022/03/29 06:34:02;;;;;;;4.27;1.87;;;11.50;99.90;;;;;;5021607;28;20196;-81
2022/03/29 06:36:27;;;;;;;6.07;1.57;;;11.60;99.90;;;;;;5019633;28;20561;-81
2022/03/29 06:38:53;;;;;;;0.93;0.93;;;11.90;99.90;;;;;;5022306;28;20312;-81
2022/03/29 06:41:19;;;;;;;5.63;1.07;;;12.10;99.90;;;;;;5022839;28;20572;-81
2022/03/29 06:43:45;;;;;;;2.37;1.33;;;12.40;99.90;;;;;;5021779;28;20182;-82
2022/03/29 06:46:11;;;;;;;2.57;1.77;;;12.50;99.90;;;;;;5020850;28;20215;-81
2022/03/29 06:48:37;;;;;;;1.73;1.00;;;12.60;99.90;;;;;;5022277;28;20186;-81
2022/03/29 06:51:03;;;;;;;1.67;1.20;;;12.70;99.90;;;;;;5021441;28;20194;-81
2022/03/29 06:53:29;;;;;;;3.67;1.50;;;12.80;99.90;;;;;;5022722;28;20184;-81
2022/03/29 06:55:55;;;;;;;3.03;1.70;;;13.10;99.90;;;;;;5022119;28;20697;-81
2022/03/29 06:58:20;;;;;;;1.00;1.00;;;13.20;99.90;;;;;;5024782;28;20215;-82
2022/03/29 07:00:47;;;;;;;3.00;1.63;;;13.30;99.90;;;;;;5022330;28;20261;-81
2022/03/29 07:03:12;;;;;;;0.80;0.80;;;13.40;99.90;;;;;;5020925;28;20183;-81
2022/03/29 07:05:42;;;;;;;4.93;2.10;;;13.50;99.90;;;;;;5020858;28;20295;-81
2022/03/29 07:08:12;;;;;;;4.87;1.00;;;13.60;99.90;;;;;;5021744;28;20187;-81
2022/03/29 07:13:23;;;;;;;0.83;0.77;;;13.90;99.90;;;;;;5026157;28;20193;-82
2022/03/29 07:15:49;;;;;;;1.00;1.00;;;14.00;99.90;;;;;;5025019;28;20207;-80
2022/03/29 07:18:15;;;;;;;3.97;1.60;;;14.10;99.90;;;;;;5024236;28;20232;-81
2022/03/29 07:20:40;;;;;;;4.37;2.20;;;14.30;99.90;;;;;;5023980;28;20189;-81
2022/03/29 07:23:06;;;;;;;3.17;2.33;;;14.40;99.90;;;;;;5025239;28;20197;-81
2022/03/29 07:25:32;;;;;;;1.57;1.40;;;14.50;99.90;;;;;;5021587;28;20209;-83
2022/03/29 07:27:58;;;;;;;5.60;2.77;;;14.10;99.90;;;;;;5015912;28;20189;-83
2022/03/29 07:30:23;;;;;;;2.60;2.33;;;13.70;99.90;;;;;;5018532;28;20193;-82
2022/03/29 07:32:52;;;;;;;4.23;3.30;;;13.90;99.90;;;;;;5017928;28;20194;-83
2022/03/29 07:35:19;;;;;;;12.60;3.40;;;13.90;99.90;;;;;;5020200;28;22007;-82
2022/03/29 07:37:45;;;;;;;2.50;1.70;;;13.30;99.90;;;;;;5025299;28;20219;-82
2022/03/29 07:40:13;;;;;;;2.17;1.30;;;13.30;99.90;;;;;;5020142;28;20278;-82
2022/03/29 07:42:39;;;;;;;2.67;2.43;;;13.60;99.90;;;;;;5023065;28;20273;-81
2022/03/29 07:45:07;;;;;;;3.53;2.10;;;13.90;99.90;;;;;;5022395;28;20324;-82
2022/03/29 07:47:36;;;;;;;4.87;2.90;;;14.20;99.90;;;;;;5026590;28;20189;-82
2022/03/29 07:50:06;;;;;;;3.90;2.20;;;14.30;99.90;;;;;;5028900;28;20187;-82
2022/03/29 07:52:37;;;;;;;4.03;1.57;;;14.10;99.90;;;;;;5029734;28;20610;-82
2022/03/29 07:55:04;;;;;;;1.90;1.60;;;14.00;99.90;;;;;;5026712;28;20958;-81
2022/03/29 07:57:29;;;;;;;2.67;2.10;;;13.80;99.90;;;;;;5024348;28;20240;-80
2022/03/29 07:59:55;;;;;;;2.60;2.40;;;13.80;99.90;;;;;;5023061;28;20212;-82
2022/03/29 08:02:21;;;;;;;4.20;1.50;;;13.70;99.90;;;;;;5020601;28;20253;-81
2022/03/29 08:04:48;;;;;;;2.73;2.07;;;14.10;99.90;;;;;;5026241;28;20571;-81
2022/03/29 08:07:14;;;;;;;2.00;1.70;;;14.30;99.90;;;;;;5021625;28;20205;-81
2022/03/29 08:09:40;;;;;;;4.23;1.13;;;14.60;99.90;;;;;;5023732;28;20189;-81
2022/03/29 08:12:06;;;;;;;2.27;2.07;;;14.70;99.90;;;;;;5025737;28;20195;-81
2022/03/29 08:14:32;;;;;;;1.90;1.70;;;14.90;99.90;;;;;;5028702;28;20207;-81
2022/03/29 08:16:57;;;;;;;2.97;2.03;;;15.10;99.90;;;;;;5025161;28;20185;-81
2022/03/29 08:19:23;;;;;;;4.57;1.80;;;15.20;99.90;;;;;;5024784;28;20179;-81
2022/03/29 08:21:52;;;;;;;2.50;2.30;;;15.30;99.90;;;;;;5027063;28;20182;-81
2022/03/29 08:24:20;;;;;;;1.73;1.40;;;15.70;99.90;;;;;;5024926;28;20285;-82
2022/03/29 08:26:48;;;;;;;4.50;2.57;;;15.80;99.90;;;;;;5026680;28;20181;-84
2022/03/29 08:29:15;;;;;;;2.80;2.27;;;15.10;99.90;;;;;;5025355;28;20670;-83
2022/03/29 08:31:41;;;;;;;4.80;2.80;;;15.20;99.90;;;;;;5023914;28;21069;-81
2022/03/29 08:34:07;;;;;;;4.50;2.83;;;14.70;99.90;;;;;;5021721;28;20178;-82
2022/03/29 08:36:33;;;;;;;3.20;2.87;;;14.50;99.90;;;;;;5025136;28;20182;-82
2022/03/29 08:38:58;;;;;;;1.53;1.43;;;14.60;99.90;;;;;;5029418;28;20223;-81
2022/03/29 08:41:27;;;;;;;3.07;1.70;;;15.10;99.90;;;;;;5032474;28;20639;-83
2022/03/29 08:43:53;;;;;;;2.67;1.87;;;15.60;99.90;;;;;;5025953;28;20550;-82
2022/03/29 08:46:19;;;;;;;1.97;1.67;;;15.90;99.90;;;;;;5028357;28;20208;-82
2022/03/29 08:48:48;;;;;;;2.33;1.53;;;16.10;99.90;;;;;;5024784;28;20178;-82
2022/03/29 08:51:15;;;;;;;3.17;1.70;;;16.30;99.90;;;;;;5026014;28;20589;-82
2022/03/29 08:53:44;;;;;;;1.90;1.53;;;16.60;99.90;;;;;;5026583;28;20178;-82
2022/03/29 08:56:10;;;;;;;2.23;2.03;;;16.60;99.90;;;;;;5026913;28;20245;-81
2022/03/29 08:58:35;;;;;;;4.13;2.60;;;16.60;99.90;;;;;;5026588;28;20233;-82
2022/03/29 09:01:01;;;;;;;2.13;1.73;;;16.80;99.90;;;;;;5026517;28;20257;-82
2022/03/29 09:03:26;;;;;;;2.27;2.07;;;16.00;99.90;;;;;;5026262;28;20243;-82
2022/03/29 09:06:10;;;;;;;3.70;1.60;;;16.30;99.90;;;;;;5025255;28;20217;-82
2022/03/29 09:08:46;;;;;;;2.57;1.90;;;16.30;99.90;;;;;;5016510;28;20196;-82
2022/03/29 09:11:13;;;;;;;2.10;1.43;;;16.70;99.90;;;;;;5024916;28;20188;-82
2022/03/29 09:13:40;;;;;;;7.67;2.00;;;16.90;99.90;;;;;;5026626;28;20186;-82
2022/03/29 09:16:10;;;;;;;3.10;1.73;;;17.10;99.90;;;;;;5025188;28;20209;-82
2022/03/29 09:18:37;;;;;;;3.17;2.77;;;17.30;99.90;;;;;;5025209;28;20292;-82
2022/03/29 09:21:14;;;;;;;3.83;1.87;;;17.50;99.90;;;;;;5026642;28;20218;-83
2022/03/29 09:23:42;;;;;;;3.40;2.17;;;16.90;99.90;;;;;;5025493;28;20202;-82
2022/03/29 09:26:25;;;;;;;3.30;2.17;;;16.40;99.90;;;;;;5025899;28;20213;-82
2022/03/29 09:28:51;;;;;;;3.67;2.17;;;16.80;99.90;;;;;;5027614;28;20262;-82
2022/03/29 09:31:22;;;;;;;2.90;1.87;;;16.70;99.90;;;;;;5024979;28;20647;-82
2022/03/29 09:33:48;;;;;;;3.90;2.63;;;16.90;99.90;;;;;;5025470;28;20213;-82
2022/03/29 09:36:20;;;;;;;1.50;1.40;;;16.50;99.90;;;;;;5026806;28;20221;-82
2022/03/29 09:38:47;;;;;;;2.17;1.90;;;16.80;99.90;;;;;;5028061;28;20285;-82
2022/03/29 09:41:27;;;;;;;1.73;1.63;;;16.40;99.90;;;;;;5027261;28;20182;-82
2022/03/29 09:44:06;;;;;;;2.33;1.57;;;16.90;99.90;;;;;;5025891;28;20178;-82
2022/03/29 09:47:01;;;;;;;2.40;2.07;;;16.90;99.90;;;;;;5026598;28;20197;-82
2022/03/29 09:49:27;;;;;;;3.33;2.30;;;17.20;99.90;;;;;;5023451;28;20265;-82
2022/03/29 09:52:19;;;;;;;2.10;1.53;;;17.40;99.90;;;;;;5024825;28;20187;-82
2022/03/29 09:55:10;;;;;;;1.77;1.37;;;17.10;99.90;;;;;;5025799;28;20194;-82
2022/03/29 09:57:43;;;;;;;1.20;1.10;;;17.10;99.90;;;;;;5024912;28;20458;-82
2022/03/29 10:00:12;;;;;;;3.97;2.10;;;17.60;99.90;;;;;;5025277;28;20179;-82
2022/03/29 10:02:45;;;;;;;1.17;1.07;;;17.60;99.90;;;;;;5024728;28;20198;-82
2022/03/29 10:05:11;;;;;;;2.00;1.83;;;17.90;99.90;;;;;;5025947;28;20201;-82
2022/03/29 10:07:47;;;;;;;1.13;1.10;;;18.20;99.90;;;;;;5024660;28;20252;-82
2022/03/29 10:10:13;;;;;;;5.30;2.30;;;17.80;99.90;;;;;;5024733;28;20205;-81
2022/03/29 10:12:39;;;;;;;1.37;1.27;;;17.50;99.90;;;;;;5026674;28;20564;-82
2022/03/29 10:15:06;;;;;;;0.73;0.73;;;17.70;99.90;;;;;;5027266;28;20202;-82
2022/03/29 10:17:32;;;;;;;1.53;1.33;;;18.10;99.90;;;;;;5025023;28;20309;-82
2022/03/29 10:19:59;;;;;;;1.90;1.30;;;18.40;99.90;;;;;;5025574;28;20235;-81
2022/03/29 10:22:25;;;;;;;2.70;1.17;;;18.00;99.90;;;;;;5025293;28;20210;-81
2022/03/29 10:24:53;;;;;;;1.20;1.13;;;18.30;99.90;;;;;;5024370;28;20251;-81
2022/03/29 10:27:19;;;;;;;1.17;1.00;;;18.50;99.90;;;;;;5022726;28;20320;-81
2022/03/29 10:29:45;;;;;;;1.50;1.13;;;18.80;99.90;;;;;;5025026;28;20185;-81
2022/03/29 10:32:26;;;;;;;0.73;0.73;;;18.80;99.90;;;;;;5023828;28;20186;-82
2022/03/29 10:35:09;;;;;;;3.83;2.77;;;19.00;99.90;;;;;;5022751;28;20204;-82
2022/03/29 10:38:07;;;;;;;2.77;1.47;;;18.40;99.90;;;;;;5025835;28;20717;-82
2022/03/29 10:40:38;;;;;;;1.23;1.13;;;18.50;99.90;;;;;;5002067;28;20218;-81
2022/03/29 10:43:26;;;;;;;0.80;0.80;;;18.40;99.90;;;;;;5024584;28;20178;-82
2022/03/29 10:45:51;;;;;;;2.30;1.67;;;18.60;99.90;;;;;;5024744;28;20784;-82
2022/03/29 10:48:17;;;;;;;1.97;1.30;;;17.80;99.90;;;;;;5024472;28;20178;-81
2022/03/29 10:50:54;;;;;;;1.80;1.30;;;17.80;99.90;;;;;;5026436;28;20186;-82
2022/03/29 10:53:33;;;;;;;2.17;1.77;;;17.50;99.90;;;;;;5024050;28;20174;-81
2022/03/29 10:56:26;;;;;;;1.43;1.33;;;17.30;99.90;;;;;;5020844;28;20252;-82
2022/03/29 10:59:04;;;;;;;2.93;1.87;;;16.90;99.90;;;;;;5021013;28;20627;-82
2022/03/29 11:01:31;;;;;;;1.53;1.43;;;17.10;99.90;;;;;;5023225;28;20178;-82
2022/03/29 11:04:06;;;;;;;1.13;1.10;;;17.80;99.90;;;;;;5023869;28;20221;-82
2022/03/29 11:06:31;;;;;;;1.30;1.17;;;18.50;99.90;;;;;;5023873;28;20571;-82
2022/03/29 11:09:07;;;;;;;2.37;1.33;;;18.90;99.90;;;;;;5024231;28;20178;-81
2022/03/29 11:11:43;;;;;;;1.13;1.03;;;19.30;99.90;;;;;;5023917;28;20296;-81
2022/03/29 11:14:27;;;;;;;4.80;1.30;;;19.60;99.90;;;;;;5021620;28;20185;-82
2022/03/29 11:16:54;;;;;;;2.03;1.37;;;19.90;99.90;;;;;;5018879;28;20274;-82
2022/03/29 11:19:49;;;;;;;2.27;1.47;;;19.60;99.90;;;;;;5019859;28;20228;-81
2022/03/29 11:22:29;;;;;;;1.37;0.80;;;19.70;99.90;;;;;;5028510;28;20189;-82
2022/03/29 11:25:12;;;;;;;2.97;1.27;;;19.50;99.90;;;;;;5031412;28;20701;-82
2022/03/29 11:27:38;;;;;;;2.53;1.30;;;18.70;99.90;;;;;;5030289;28;20185;-82
2022/03/29 11:30:10;;;;;;;4.57;1.87;;;18.30;99.90;;;;;;5030298;28;20529;-82
2022/03/29 11:32:40;;;;;;;2.43;1.50;;;18.00;99.90;;;;;;5029258;28;20189;-82
2022/03/29 11:35:07;;;;;;;1.07;1.00;;;18.60;99.90;;;;;;5025428;28;20224;-81
2022/03/29 11:37:39;;;;;;;3.17;1.77;;;18.80;99.90;;;;;;5028006;28;20210;-82
2022/03/29 11:40:07;;;;;;;8.00;1.10;;;19.10;99.90;;;;;;5017694;28;20190;-83
2022/03/29 11:42:49;;;;;;;0.70;0.70;;;19.20;99.90;;;;;;5022914;28;20229;-85
2022/03/29 11:45:16;;;;;;;0.97;0.67;;;19.30;99.90;;;;;;5027170;28;20258;-80
2022/03/29 11:47:57;;;;;;;0.87;0.87;;;19.50;99.90;;;;;;5027571;28;20718;-81
2022/03/29 11:50:43;;;;;;;1.97;1.40;;;19.80;99.90;;;;;;5034189;28;20233;-80
2022/03/29 11:53:28;;;;;;;1.43;1.33;;;18.80;99.90;;;;;;5029695;28;20240;-79
2022/03/29 11:56:01;;;;;;;2.03;1.10;;;18.70;99.90;;;;;;5029105;28;20251;-81
2022/03/29 11:58:35;;;;;;;1.37;1.07;;;18.90;99.90;;;;;;5029818;28;20209;-81
2022/03/29 12:01:04;;;;;;;1.43;0.77;;;18.90;99.90;;;;;;5032147;28;20186;-81
2022/03/29 12:03:35;;;;;;;1.67;0.93;;;19.20;99.90;;;;;;5032001;28;20191;-80
2022/03/29 12:06:09;;;;;;;1.90;0.80;;;19.50;99.90;;;;;;5028832;28;20235;-81
2022/03/29 12:09:03;;;;;;;4.70;0.70;;;19.40;99.90;;;;;;5031016;28;20191;-80
2022/03/29 12:11:34;;;;;;;0.87;0.87;;;19.70;99.90;;;;;;5027373;28;20198;-80
2022/03/29 12:14:14;;;;;;;0.73;0.73;;;19.30;99.90;;;;;;5030184;28;20189;-80
2022/03/29 12:16:51;;;;;;;1.13;1.13;;;19.60;99.90;;;;;;5029182;28;20208;-80
2022/03/29 12:19:22;;;;;;;3.07;1.13;;;19.30;99.90;;;;;;5030600;28;20233;-83
2022/03/29 12:21:51;;;;;;;2.03;0.97;;;19.30;99.90;;;;;;5030527;28;20191;-80
2022/03/29 12:24:18;;;;;;;2.50;1.93;;;19.50;99.90;;;;;;5028380;28;20229;-83
2022/03/29 12:26:47;;;;;;;2.23;1.27;;;19.60;99.90;;;;;;5030344;28;20187;-82
2022/03/29 12:29:15;;;;;;;1.17;0.60;;;19.70;99.90;;;;;;5029788;28;20314;-82
2022/03/29 12:31:42;;;;;;;1.50;1.30;;;19.70;99.90;;;;;;5031404;28;20187;-82
2022/03/29 12:34:09;;;;;;;7.10;1.97;;;19.30;99.90;;;;;;5029641;28;20194;-82
2022/03/29 12:36:48;;;;;;;1.43;1.33;;;18.50;99.90;;;;;;5028868;28;20659;-82
2022/03/29 12:39:14;;;;;;;0.77;0.77;;;18.70;99.90;;;;;;5026573;28;20268;-82
2022/03/29 12:41:55;;;;;;;2.73;1.80;;;19.10;99.90;;;;;;5028656;28;20670;-82
2022/03/29 12:44:37;;;;;;;2.37;1.50;;;18.20;99.90;;;;;;5026686;28;20174;-82
2022/03/29 12:47:04;;;;;;;1.50;1.23;;;18.20;99.90;;;;;;5026014;28;20191;-82
2022/03/29 12:49:31;;;;;;;2.57;1.50;;;17.60;99.90;;;;;;5025636;28;20239;-82
2022/03/29 12:52:02;;;;;;;1.10;0.87;;;18.20;99.90;;;;;;5027191;28;20183;-82
2022/03/29 12:54:35;;;;;;;2.27;1.87;;;18.30;99.90;;;;;;5027806;28;21143;-82
2022/03/29 12:57:02;;;;;;;2.23;1.90;;;18.40;99.90;;;;;;5023837;28;20194;-82
2022/03/29 12:59:35;;;;;;;2.53;1.43;;;17.60;99.90;;;;;;5027064;28;20189;-82
2022/03/29 13:02:14;;;;;;;2.83;1.77;;;17.30;99.90;;;;;;5028057;28;20203;-81